createdAt,value
2019-03-05T00:00:01.245Z,4.80
2019-03-05T00:02:28.070Z,4.70
2019-03-05T00:04:54.924Z,4.70
2019-03-05T00:07:21.752Z,4.70
2019-03-05T00:09:48.578Z,4.80
2019-03-05T00:12:15.366Z,4.70
2019-03-05T00:14:42.189Z,4.80
2019-03-05T00:17:09.017Z,4.80
2019-03-05T00:19:35.801Z,4.80
2019-03-05T00:22:02.622Z,4.80
2019-03-05T00:24:49.901Z,4.80
2019-03-05T00:27:16.732Z,4.80
2019-03-05T00:30:07.929Z,4.80
2019-03-05T00:32:34.761Z,4.80
2019-03-05T00:35:35.493Z,4.80
2019-03-05T00:38:08.724Z,4.70
2019-03-05T00:40:47.001Z,4.60
2019-03-05T00:43:17.438Z,4.70
2019-03-05T00:46:05.961Z,4.70
2019-03-05T00:48:42.161Z,4.60
2019-03-05T00:51:27.130Z,4.50
2019-03-05T00:54:32.828Z,4.50
2019-03-05T00:57:18.054Z,4.50
2019-03-05T01:00:04.112Z,4.50
2019-03-05T01:02:37.690Z,4.50
2019-03-05T01:05:39.953Z,4.50
2019-03-05T01:08:06.746Z,4.40
2019-03-05T01:10:33.578Z,4.40
2019-03-05T01:13:00.412Z,4.30
2019-03-05T01:15:27.397Z,4.30
2019-03-05T01:17:54.221Z,4.30
2019-03-05T01:20:21.005Z,4.30
2019-03-05T01:22:47.825Z,4.30
2019-03-05T01:25:23.492Z,4.20
2019-03-05T01:27:50.335Z,4.30
2019-03-05T01:30:33.330Z,4.30
2019-03-05T01:33:01.956Z,4.30
2019-03-05T01:35:30.583Z,4.30
2019-03-05T01:37:57.366Z,4.30
2019-03-05T01:40:32.140Z,4.30
2019-03-05T01:42:59.026Z,4.30
2019-03-05T01:45:25.848Z,4.30
2019-03-05T01:47:52.666Z,4.30
2019-03-05T01:50:19.452Z,4.20
2019-03-05T01:52:46.585Z,4.20
2019-03-05T01:55:13.384Z,4.20
2019-03-05T01:57:40.212Z,4.20
2019-03-05T02:00:08.736Z,4.20
2019-03-05T02:02:36.239Z,4.10
2019-03-05T02:05:04.857Z,4.10
2019-03-05T02:07:31.713Z,4.00
2019-03-05T02:09:59.197Z,3.90
2019-03-05T02:12:26.021Z,4.00
2019-03-05T02:14:52.841Z,4.00
2019-03-05T02:17:19.625Z,4.00
2019-03-05T02:19:46.448Z,4.00
2019-03-05T02:22:22.748Z,3.90
2019-03-05T02:25:13.940Z,3.90
2019-03-05T02:27:53.765Z,3.80
2019-03-05T02:30:33.501Z,3.80
2019-03-05T02:33:39.413Z,3.90
2019-03-05T02:36:30.959Z,3.90
2019-03-05T02:39:30.368Z,3.80
2019-03-05T02:42:03.481Z,3.80
2019-03-05T02:44:55.301Z,3.80
2019-03-05T02:47:28.685Z,3.90
2019-03-05T02:50:24.917Z,3.90
2019-03-05T02:53:23.065Z,3.90
2019-03-05T02:56:28.886Z,3.90
2019-03-05T02:58:55.284Z,4.00
2019-03-05T03:01:26.871Z,4.00
2019-03-05T03:03:55.503Z,4.00
2019-03-05T03:06:24.169Z,4.10
2019-03-05T03:09:03.837Z,4.00
2019-03-05T03:11:30.662Z,4.00
2019-03-05T03:13:57.446Z,4.10
2019-03-05T03:16:24.270Z,4.10
2019-03-05T03:18:51.090Z,4.10
2019-03-05T03:21:19.213Z,4.20
2019-03-05T03:23:45.998Z,4.20
2019-03-05T03:26:12.817Z,4.20
2019-03-05T03:28:39.646Z,4.10
2019-03-05T03:31:06.426Z,4.20
2019-03-05T03:33:33.248Z,4.20
2019-03-05T03:36:00.047Z,4.10
2019-03-05T03:38:26.860Z,4.20
2019-03-05T03:40:53.655Z,4.10
2019-03-05T03:43:20.477Z,4.20
2019-03-05T03:45:47.266Z,4.20
2019-03-05T03:48:14.096Z,4.20
2019-03-05T03:50:40.877Z,4.10
2019-03-05T03:53:07.701Z,4.10
2019-03-05T03:55:34.531Z,4.10
2019-03-05T03:58:01.309Z,4.00
2019-03-05T04:00:28.125Z,4.00
2019-03-05T04:02:54.961Z,4.00
2019-03-05T04:05:22.182Z,4.00
2019-03-05T04:07:49.010Z,4.00
2019-03-05T04:10:15.800Z,4.00
2019-03-05T04:12:42.614Z,4.10
2019-03-05T04:15:15.248Z,4.10
2019-03-05T04:17:42.042Z,4.10
2019-03-05T04:20:11.164Z,4.10
2019-03-05T04:22:37.967Z,4.10
2019-03-05T04:25:06.278Z,4.10
2019-03-05T04:27:33.109Z,4.10
2019-03-05T04:30:00.385Z,4.10
2019-03-05T04:32:29.123Z,4.10
2019-03-05T04:34:56.136Z,4.10
2019-03-05T04:37:22.986Z,4.10
2019-03-05T04:39:49.781Z,4.20
2019-03-05T04:42:16.601Z,4.20
2019-03-05T04:44:45.189Z,4.10
2019-03-05T04:47:12.013Z,4.10
2019-03-05T04:49:40.608Z,4.10
2019-03-05T04:52:14.806Z,4.00
2019-03-05T04:54:41.580Z,3.90
2019-03-05T04:57:08.405Z,3.90
2019-03-05T04:59:35.221Z,3.90
2019-03-05T05:02:02.005Z,3.90
2019-03-05T05:04:29.568Z,3.90
2019-03-05T05:06:56.385Z,4.00
2019-03-05T05:09:23.990Z,4.00
2019-03-05T05:11:50.809Z,4.10
2019-03-05T05:14:17.624Z,4.10
2019-03-05T05:16:44.406Z,4.10
2019-03-05T05:19:11.234Z,4.20
2019-03-05T05:21:38.061Z,4.30
2019-03-05T05:24:04.843Z,4.30
2019-03-05T05:26:31.668Z,4.40
2019-03-05T05:28:58.498Z,4.40
2019-03-05T05:31:25.289Z,4.50
2019-03-05T05:33:52.110Z,4.60
2019-03-05T05:36:18.944Z,4.60
2019-03-05T05:38:45.724Z,4.50
2019-03-05T05:41:12.541Z,4.50
2019-03-05T05:43:39.435Z,4.60
2019-03-05T05:46:06.262Z,4.50
2019-03-05T05:48:33.033Z,4.50
2019-03-05T05:50:59.857Z,4.50
2019-03-05T05:53:26.641Z,4.50
2019-03-05T05:55:53.526Z,4.50
2019-03-05T05:58:20.398Z,4.50
2019-03-05T06:00:48.980Z,4.50
2019-03-05T06:03:15.883Z,4.50
2019-03-05T06:05:42.674Z,4.50
2019-03-05T06:08:09.495Z,4.50
2019-03-05T06:10:36.309Z,4.50
2019-03-05T06:13:03.234Z,4.60
2019-03-05T06:15:30.025Z,4.50
2019-03-05T06:17:56.812Z,4.50
2019-03-05T06:20:23.669Z,4.60
2019-03-05T06:22:50.485Z,4.70
2019-03-05T06:25:17.276Z,4.70
2019-03-05T06:27:44.105Z,4.80
2019-03-05T06:30:21.929Z,4.80
2019-03-05T06:32:48.745Z,4.80
2019-03-05T06:35:15.661Z,4.80
2019-03-05T06:37:42.482Z,4.80
2019-03-05T06:40:17.125Z,4.80
2019-03-05T06:42:43.966Z,4.80
2019-03-05T06:45:13.293Z,4.80
2019-03-05T06:47:40.088Z,4.90
2019-03-05T06:50:09.522Z,4.90
2019-03-05T06:52:36.309Z,5.00
2019-03-05T06:55:06.040Z,4.90
2019-03-05T06:57:32.819Z,5.00
2019-03-05T06:59:59.641Z,5.00
2019-03-05T07:02:26.496Z,5.00
2019-03-05T07:04:55.820Z,4.90
2019-03-05T07:07:22.640Z,4.90
2019-03-05T07:09:53.030Z,5.00
2019-03-05T07:12:23.644Z,5.10
2019-03-05T07:15:09.690Z,5.20
2019-03-05T07:17:42.803Z,5.20
2019-03-05T07:20:28.458Z,5.20
2019-03-05T07:23:01.676Z,5.30
2019-03-05T07:25:28.493Z,5.30
2019-03-05T07:27:55.274Z,5.60
2019-03-05T07:30:22.192Z,5.90
2019-03-05T07:32:48.981Z,6.20
2019-03-05T07:35:17.600Z,6.20
2019-03-05T07:37:44.396Z,6.30
2019-03-05T07:40:11.305Z,6.20
2019-03-05T07:42:38.097Z,6.20
2019-03-05T07:45:07.526Z,6.10
2019-03-05T07:47:34.305Z,6.10
2019-03-05T07:50:01.129Z,6.10
2019-03-05T07:52:27.909Z,6.30
2019-03-05T07:54:54.737Z,6.30
2019-03-05T07:57:21.526Z,6.50
2019-03-05T07:59:48.349Z,6.50
2019-03-05T08:02:15.382Z,6.40
2019-03-05T08:04:42.237Z,6.40
2019-03-05T08:07:09.061Z,6.40
2019-03-05T08:09:37.053Z,6.40
2019-03-05T08:12:13.624Z,6.30
2019-03-05T08:15:02.349Z,6.50
2019-03-05T08:17:29.174Z,6.50
2019-03-05T08:19:55.999Z,6.50
2019-03-05T08:22:22.778Z,6.40
2019-03-05T08:24:49.601Z,6.50
2019-03-05T08:27:16.395Z,6.90
2019-03-05T08:29:43.214Z,7.10
2019-03-05T08:32:10.038Z,7.40
2019-03-05T08:34:36.816Z,7.50
2019-03-05T08:37:03.641Z,7.60
2019-03-05T08:39:30.425Z,7.50
2019-03-05T08:41:57.251Z,7.40
2019-03-05T08:44:24.029Z,7.30
2019-03-05T08:46:50.849Z,7.20
2019-03-05T08:49:18.002Z,7.10
2019-03-05T08:51:44.971Z,6.90
2019-03-05T08:54:11.784Z,7.00
2019-03-05T08:56:38.574Z,7.50
2019-03-05T08:59:05.393Z,7.70
2019-03-05T09:01:32.185Z,8.00
2019-03-05T09:03:59.010Z,8.20
2019-03-05T09:06:25.825Z,8.40
2019-03-05T09:08:52.650Z,8.70
2019-03-05T09:11:19.490Z,8.60
2019-03-05T09:13:46.273Z,8.70
2019-03-05T09:16:13.088Z,8.70
2019-03-05T09:18:39.906Z,8.40
2019-03-05T09:21:06.728Z,8.50
2019-03-05T09:23:33.512Z,8.70
2019-03-05T09:26:00.349Z,8.90
2019-03-05T09:28:27.169Z,8.90
2019-03-05T09:30:53.994Z,9.20
2019-03-05T09:33:20.826Z,9.00
2019-03-05T09:35:47.604Z,8.90
2019-03-05T09:38:14.633Z,8.70
2019-03-05T09:40:41.526Z,8.30
2019-03-05T09:43:08.334Z,8.20
2019-03-05T09:45:35.153Z,8.10
2019-03-05T09:48:01.944Z,8.30
2019-03-05T09:50:28.777Z,8.50
2019-03-05T09:52:55.609Z,8.60
2019-03-05T09:55:25.398Z,8.90
2019-03-05T09:58:06.883Z,9.20
2019-03-05T10:00:27.649Z,9.50
2019-03-05T10:02:54.485Z,9.90
2019-03-05T10:05:21.305Z,10.10
2019-03-05T10:07:48.524Z,10.40
2019-03-05T10:10:23.255Z,10.20
2019-03-05T10:12:50.140Z,10.10
2019-03-05T10:15:18.981Z,10.10
2019-03-05T10:17:45.764Z,10.10
2019-03-05T10:20:17.481Z,10.30
2019-03-05T10:22:45.160Z,10.30
2019-03-05T10:25:14.494Z,10.20
2019-03-05T10:27:41.280Z,10.00
2019-03-05T10:30:24.086Z,9.60
2019-03-05T10:32:42.949Z,9.40
2019-03-05T10:35:09.732Z,9.20
2019-03-05T10:37:36.560Z,9.10
2019-03-05T10:40:06.948Z,8.80
2019-03-05T10:42:33.771Z,8.80
2019-03-05T10:45:00.605Z,8.80
2019-03-05T10:47:27.397Z,9.00
2019-03-05T10:49:54.425Z,9.10
2019-03-05T10:52:21.212Z,9.30
2019-03-05T10:54:48.033Z,9.40
2019-03-05T10:57:14.827Z,9.60
2019-03-05T10:59:42.758Z,9.50
2019-03-05T11:02:09.534Z,9.70
2019-03-05T11:04:45.430Z,9.70
2019-03-05T11:07:05.096Z,9.60
2019-03-05T11:09:31.922Z,9.60
2019-03-05T11:11:59.115Z,9.80
2019-03-05T11:14:25.941Z,9.90
2019-03-05T11:16:52.966Z,9.70
2019-03-05T11:19:19.771Z,9.60
2019-03-05T11:21:46.601Z,9.70
2019-03-05T11:24:13.387Z,9.70
2019-03-05T11:26:40.240Z,9.40
2019-03-05T11:29:07.065Z,9.30
2019-03-05T11:31:33.865Z,9.40
2019-03-05T11:34:00.700Z,9.50
2019-03-05T11:36:27.523Z,9.50
2019-03-05T11:38:54.373Z,9.60
2019-03-05T11:41:21.169Z,9.90
2019-03-05T11:43:47.994Z,10.10
2019-03-05T11:46:14.876Z,10.50
2019-03-05T11:48:41.696Z,10.60
2019-03-05T11:51:08.521Z,10.40
2019-03-05T11:53:35.315Z,10.30
2019-03-05T11:56:02.128Z,10.30
2019-03-05T11:58:28.948Z,10.10
2019-03-05T12:01:00.185Z,9.90
2019-03-05T12:03:27.005Z,9.80
2019-03-05T12:05:53.834Z,9.70
2019-03-05T12:08:20.649Z,9.60
2019-03-05T12:10:47.493Z,9.60
2019-03-05T12:13:14.700Z,9.80
2019-03-05T12:15:43.497Z,10.10
2019-03-05T12:18:10.341Z,10.20
2019-03-05T12:20:37.285Z,10.20
2019-03-05T12:23:06.743Z,10.10
2019-03-05T12:25:36.031Z,10.20
2019-03-05T12:28:10.425Z,10.10
2019-03-05T12:30:35.609Z,10.10
2019-03-05T12:33:02.558Z,9.80
2019-03-05T12:35:29.457Z,9.80
2019-03-05T12:37:56.968Z,9.80
2019-03-05T12:40:25.194Z,9.90
2019-03-05T12:42:52.049Z,9.90
2019-03-05T12:45:20.287Z,9.90
2019-03-05T12:47:47.105Z,10.00
2019-03-05T12:50:22.512Z,9.90
2019-03-05T12:52:51.848Z,9.70
2019-03-05T12:55:19.125Z,9.70
2019-03-05T12:57:45.941Z,9.70
2019-03-05T13:00:28.359Z,9.50
2019-03-05T13:02:55.670Z,9.60
2019-03-05T13:05:22.464Z,9.80
2019-03-05T13:07:52.545Z,9.90
2019-03-05T13:10:20.925Z,9.90
2019-03-05T13:12:47.720Z,9.80
2019-03-05T13:15:20.693Z,9.80
2019-03-05T13:17:51.604Z,9.80
2019-03-05T13:20:16.678Z,9.70
2019-03-05T13:22:43.557Z,9.70
2019-03-05T13:25:13.485Z,9.60
2019-03-05T13:27:40.286Z,9.50
2019-03-05T13:30:10.614Z,9.40
2019-03-05T13:32:37.445Z,9.40
2019-03-05T13:35:07.140Z,9.30
2019-03-05T13:37:33.963Z,9.40
2019-03-05T13:40:00.746Z,9.40
2019-03-05T13:42:29.067Z,9.40
2019-03-05T13:44:57.309Z,9.40
2019-03-05T13:47:24.250Z,9.40
2019-03-05T13:50:09.941Z,9.40
2019-03-05T13:52:43.320Z,9.50
2019-03-05T13:55:14.633Z,9.60
2019-03-05T13:57:55.034Z,9.60
2019-03-05T14:00:22.336Z,9.70
2019-03-05T14:03:04.833Z,9.70
2019-03-05T14:05:44.522Z,9.70
2019-03-05T14:08:48.973Z,9.80
2019-03-05T14:11:15.883Z,9.90
2019-03-05T14:13:42.664Z,9.90
2019-03-05T14:16:11.102Z,9.80
2019-03-05T14:18:37.892Z,9.90
2019-03-05T14:21:04.760Z,9.90
2019-03-05T14:23:31.544Z,9.80
2019-03-05T14:25:58.386Z,9.70
2019-03-05T14:28:25.183Z,9.80
2019-03-05T14:30:51.997Z,9.60
2019-03-05T14:33:18.811Z,9.60
2019-03-05T14:35:47.508Z,9.60
2019-03-05T14:38:14.742Z,9.60
2019-03-05T14:40:41.543Z,9.60
2019-03-05T14:43:08.384Z,9.50
2019-03-05T14:45:35.266Z,9.50
2019-03-05T14:48:04.358Z,9.50
2019-03-05T14:50:31.303Z,9.40
2019-03-05T14:52:58.214Z,9.40
2019-03-05T14:55:25.301Z,9.30
2019-03-05T14:57:52.112Z,9.30
2019-03-05T15:00:20.308Z,9.30
2019-03-05T15:02:47.271Z,9.30
2019-03-05T15:05:14.174Z,9.20
2019-03-05T15:07:40.979Z,9.20
2019-03-05T15:10:08.433Z,9.20
2019-03-05T15:12:36.855Z,9.20
2019-03-05T15:15:13.417Z,9.10
2019-03-05T15:17:40.522Z,9.10
2019-03-05T15:20:09.564Z,9.10
2019-03-05T15:22:36.344Z,9.20
2019-03-05T15:25:05.986Z,9.10
2019-03-05T15:27:32.845Z,9.10
2019-03-05T15:29:59.705Z,9.20
2019-03-05T15:32:26.562Z,9.10
2019-03-05T15:34:53.319Z,9.20
2019-03-05T15:37:20.228Z,9.10
2019-03-05T15:39:47.029Z,9.10
2019-03-05T15:42:13.858Z,9.10
2019-03-05T15:44:40.656Z,9.10
2019-03-05T15:47:07.506Z,9.10
2019-03-05T15:49:34.382Z,9.10
2019-03-05T15:52:01.203Z,9.00
2019-03-05T15:54:27.990Z,9.00
2019-03-05T15:56:54.808Z,8.80
2019-03-05T15:59:21.752Z,8.60
2019-03-05T16:01:48.529Z,8.50
2019-03-05T16:04:15.371Z,8.40
2019-03-05T16:06:42.174Z,8.40
2019-03-05T16:09:16.058Z,8.20
2019-03-05T16:11:43.129Z,8.20
2019-03-05T16:14:09.953Z,8.20
2019-03-05T16:16:36.920Z,8.20
2019-03-05T16:19:03.751Z,8.00
2019-03-05T16:21:30.528Z,7.90
2019-03-05T16:23:57.364Z,7.80
2019-03-05T16:26:24.808Z,7.70
2019-03-05T16:28:51.669Z,7.70
2019-03-05T16:31:23.073Z,7.70
2019-03-05T16:34:09.485Z,7.60
2019-03-05T16:36:41.245Z,7.60
2019-03-05T16:39:10.561Z,7.60
2019-03-05T16:41:58.282Z,7.60
2019-03-05T16:44:36.126Z,7.60
2019-03-05T16:47:10.749Z,7.60
2019-03-05T16:49:42.137Z,7.50
2019-03-05T16:52:16.857Z,7.40
2019-03-05T16:54:51.277Z,7.30
2019-03-05T16:57:35.361Z,7.30
2019-03-05T17:00:07.606Z,7.20
2019-03-05T17:02:36.235Z,7.10
2019-03-05T17:05:19.328Z,7.00
2019-03-05T17:07:53.730Z,6.90
2019-03-05T17:10:29.940Z,6.80
2019-03-05T17:12:57.196Z,6.60
2019-03-05T17:15:24.143Z,6.60
2019-03-05T17:17:51.189Z,6.50
2019-03-05T17:20:18.133Z,6.50
2019-03-05T17:22:45.178Z,6.40
2019-03-05T17:25:17.765Z,6.40
2019-03-05T17:27:44.593Z,6.30
2019-03-05T17:30:13.800Z,6.30
2019-03-05T17:32:40.725Z,6.30
2019-03-05T17:35:08.462Z,6.30
2019-03-05T17:37:35.249Z,6.30
2019-03-05T17:40:02.868Z,6.30
2019-03-05T17:42:29.958Z,6.30
2019-03-05T17:44:56.825Z,6.30
2019-03-05T17:47:23.706Z,6.20
2019-03-05T17:49:50.537Z,6.30
2019-03-05T17:52:17.317Z,6.20
2019-03-05T17:54:44.150Z,6.20
2019-03-05T17:57:10.983Z,6.20
2019-03-05T17:59:37.772Z,6.20
2019-03-05T18:02:04.604Z,6.10
2019-03-05T18:04:31.470Z,6.10
2019-03-05T18:06:58.566Z,6.10
2019-03-05T18:09:25.389Z,6.10
2019-03-05T18:11:52.877Z,6.10
2019-03-05T18:14:19.663Z,6.10
2019-03-05T18:16:46.497Z,6.20
2019-03-05T18:19:13.319Z,6.10
2019-03-05T18:21:40.303Z,6.10
2019-03-05T18:24:07.136Z,6.10
2019-03-05T18:26:33.969Z,6.10
2019-03-05T18:29:00.768Z,6.10
2019-03-05T18:31:28.120Z,6.00
2019-03-05T18:33:54.974Z,5.90
2019-03-05T18:36:21.762Z,5.70
2019-03-05T18:38:48.744Z,5.40
2019-03-05T18:41:15.688Z,5.40
2019-03-05T18:43:42.632Z,5.20
2019-03-05T18:46:09.986Z,5.20
2019-03-05T18:48:36.931Z,5.10
2019-03-05T18:51:03.875Z,5.00
2019-03-05T18:53:30.921Z,4.90
2019-03-05T18:55:57.867Z,5.00
2019-03-05T18:58:24.811Z,4.90
2019-03-05T19:00:51.856Z,4.90
2019-03-05T19:03:19.313Z,4.80
2019-03-05T19:05:46.874Z,4.90
2019-03-05T19:08:13.816Z,4.80
2019-03-05T19:10:40.760Z,4.80
2019-03-05T19:13:07.705Z,4.80
2019-03-05T19:15:34.855Z,4.70
2019-03-05T19:18:02.007Z,4.70
2019-03-05T19:20:29.769Z,4.70
2019-03-05T19:22:56.813Z,4.60
2019-03-05T19:25:27.444Z,4.50
2019-03-05T19:27:54.388Z,4.50
2019-03-05T19:30:26.140Z,4.50
2019-03-05T19:32:54.931Z,4.50
2019-03-05T19:35:21.876Z,4.50
2019-03-05T19:37:49.025Z,4.50
2019-03-05T19:40:22.217Z,4.50
2019-03-05T19:42:49.467Z,4.40
2019-03-05T19:45:17.344Z,4.30
2019-03-05T19:47:44.277Z,4.30
2019-03-05T19:50:14.294Z,4.20
2019-03-05T19:52:41.344Z,4.10
2019-03-05T19:55:10.921Z,3.90
2019-03-05T19:57:37.790Z,3.90
2019-03-05T20:00:17.943Z,3.80
2019-03-05T20:02:44.990Z,3.70
2019-03-05T20:05:14.016Z,3.80
2019-03-05T20:07:40.841Z,3.80
2019-03-05T20:10:17.019Z,3.80
2019-03-05T20:12:43.840Z,3.70
2019-03-05T20:15:13.609Z,3.70
2019-03-05T20:17:40.394Z,3.80
2019-03-05T20:20:08.830Z,3.80
2019-03-05T20:22:35.750Z,3.80
2019-03-05T20:25:05.945Z,3.70
2019-03-05T20:27:32.782Z,3.80
2019-03-05T20:30:01.850Z,3.80
2019-03-05T20:32:28.633Z,3.80
2019-03-05T20:34:55.461Z,3.80
2019-03-05T20:37:22.249Z,3.80
2019-03-05T20:39:49.076Z,3.80
2019-03-05T20:42:15.864Z,3.80
2019-03-05T20:44:43.698Z,3.70
2019-03-05T20:47:10.484Z,3.70
2019-03-05T20:49:37.304Z,3.70
2019-03-05T20:52:04.103Z,3.70
2019-03-05T20:54:30.930Z,3.70
2019-03-05T20:56:57.725Z,3.80
2019-03-05T20:59:24.557Z,3.80
2019-03-05T21:01:51.449Z,3.80
2019-03-05T21:04:18.281Z,3.80
2019-03-05T21:06:45.091Z,3.80
2019-03-05T21:09:20.233Z,3.90
2019-03-05T21:11:47.060Z,3.80
2019-03-05T21:14:14.225Z,3.90
2019-03-05T21:16:41.051Z,3.90
2019-03-05T21:19:08.012Z,3.90
2019-03-05T21:21:34.955Z,4.00
2019-03-05T21:24:03.026Z,4.00
2019-03-05T21:26:29.970Z,4.00
2019-03-05T21:28:56.915Z,4.00
2019-03-05T21:31:23.961Z,4.10
2019-03-05T21:33:51.989Z,4.20
2019-03-05T21:36:18.977Z,4.20
2019-03-05T21:38:45.922Z,4.20
2019-03-05T21:41:13.172Z,4.20
2019-03-05T21:43:40.117Z,4.30
2019-03-05T21:46:14.434Z,4.30
2019-03-05T21:48:41.377Z,4.40
2019-03-05T21:51:08.322Z,4.40
2019-03-05T21:53:35.368Z,4.50
2019-03-05T21:56:02.314Z,4.40
2019-03-05T21:58:29.359Z,4.20
2019-03-05T22:00:56.307Z,4.20
2019-03-05T22:03:23.302Z,4.20
2019-03-05T22:05:50.295Z,4.20
2019-03-05T22:08:17.957Z,4.20
2019-03-05T22:10:44.900Z,4.10
2019-03-05T22:13:11.845Z,4.10
2019-03-05T22:15:38.891Z,4.10
2019-03-05T22:18:06.040Z,4.00
2019-03-05T22:20:33.292Z,4.00
2019-03-05T22:23:00.342Z,4.00
2019-03-05T22:25:28.903Z,4.10
2019-03-05T22:27:56.377Z,4.10
2019-03-05T22:30:31.613Z,3.90
2019-03-05T22:32:58.560Z,3.90
2019-03-05T22:35:25.402Z,3.90
2019-03-05T22:37:52.345Z,4.00
2019-03-05T22:40:21.442Z,4.00
2019-03-05T22:42:48.384Z,3.90
2019-03-05T22:45:17.349Z,3.90
2019-03-05T22:47:44.450Z,3.90
2019-03-05T22:50:13.374Z,3.90
2019-03-05T22:52:40.155Z,3.80
2019-03-05T22:55:09.147Z,3.90
2019-03-05T22:57:36.605Z,3.80
2019-03-05T23:00:13.216Z,3.80
2019-03-05T23:02:40.133Z,3.80
2019-03-05T23:05:12.004Z,3.80
2019-03-05T23:07:39.025Z,3.90
2019-03-05T23:10:10.727Z,4.00
2019-03-05T23:12:37.929Z,4.00
2019-03-05T23:15:08.765Z,4.00
2019-03-05T23:17:35.812Z,3.80
2019-03-05T23:20:05.146Z,3.80
2019-03-05T23:22:32.056Z,3.80
2019-03-05T23:24:59.205Z,3.70
2019-03-05T23:27:26.149Z,3.80
2019-03-05T23:29:53.092Z,3.80
2019-03-05T23:32:20.038Z,3.80
2019-03-05T23:34:46.981Z,3.80
2019-03-05T23:37:13.935Z,3.90
2019-03-05T23:39:41.326Z,3.90
2019-03-05T23:42:08.327Z,3.80
2019-03-05T23:44:35.270Z,3.70
2019-03-05T23:47:02.215Z,3.80
2019-03-05T23:49:29.267Z,3.80
2019-03-05T23:51:56.206Z,3.90
2019-03-05T23:54:23.559Z,3.80
2019-03-05T23:56:50.505Z,3.90
2019-03-05T23:59:17.551Z,3.90
